createdAt,value
2018-08-13T00:00:10.908Z,2.80
2018-08-13T00:02:39.308Z,1.90
2018-08-13T00:05:07.723Z,2.03
2018-08-13T00:07:36.111Z,1.63
2018-08-13T00:10:04.945Z,1.80
2018-08-13T00:12:33.397Z,2.30
2018-08-13T00:15:01.843Z,1.73
2018-08-13T00:17:30.298Z,1.87
2018-08-13T00:19:58.724Z,1.60
2018-08-13T00:22:27.138Z,1.80
2018-08-13T00:24:55.551Z,2.03
2018-08-13T00:27:23.956Z,1.70
2018-08-13T00:29:52.364Z,2.10
2018-08-13T00:32:20.846Z,1.60
2018-08-13T00:34:49.239Z,1.93
2018-08-13T00:37:17.688Z,2.00
2018-08-13T00:39:46.128Z,1.63
2018-08-13T00:42:14.576Z,1.87
2018-08-13T00:44:43.015Z,1.50
2018-08-13T00:47:11.456Z,1.67
2018-08-13T00:49:39.896Z,2.17
2018-08-13T00:52:08.375Z,1.90
2018-08-13T00:54:36.815Z,2.10
2018-08-13T00:57:05.420Z,1.97
2018-08-13T00:59:33.832Z,2.00
2018-08-13T01:02:02.287Z,2.07
2018-08-13T01:04:30.681Z,1.73
2018-08-13T01:06:59.092Z,2.10
2018-08-13T01:09:27.557Z,2.00
2018-08-13T01:11:55.993Z,2.20
2018-08-13T01:14:24.396Z,2.03
2018-08-13T01:16:52.841Z,1.80
2018-08-13T01:19:21.292Z,2.03
2018-08-13T01:21:49.704Z,1.93
2018-08-13T01:24:18.132Z,1.97
2018-08-13T01:26:46.533Z,2.30
2018-08-13T01:29:14.975Z,2.10
2018-08-13T01:31:43.378Z,1.53
2018-08-13T01:34:11.833Z,1.80
2018-08-13T01:36:40.228Z,1.80
2018-08-13T01:39:10.215Z,1.90
2018-08-13T01:41:38.664Z,2.53
2018-08-13T01:44:07.280Z,2.20
2018-08-13T01:46:35.945Z,2.07
2018-08-13T01:49:04.753Z,2.00
2018-08-13T01:51:33.192Z,2.40
2018-08-13T01:54:01.628Z,2.30
2018-08-13T01:56:30.040Z,2.40
2018-08-13T01:58:58.484Z,2.20
2018-08-13T02:01:27.027Z,1.90
2018-08-13T02:03:55.369Z,2.23
2018-08-13T02:06:23.851Z,2.33
2018-08-13T02:08:52.304Z,2.00
2018-08-13T02:11:20.719Z,2.70
2018-08-13T02:13:49.127Z,2.17
2018-08-13T02:16:17.576Z,2.47
2018-08-13T02:18:45.996Z,1.90
2018-08-13T02:21:14.465Z,2.20
2018-08-13T02:23:42.894Z,2.53
2018-08-13T02:26:11.348Z,2.17
2018-08-13T02:28:39.829Z,2.33
2018-08-13T02:31:08.267Z,2.10
2018-08-13T02:33:36.756Z,1.80
2018-08-13T02:36:05.230Z,2.37
2018-08-13T02:38:33.685Z,2.07
2018-08-13T02:41:02.175Z,1.90
2018-08-13T02:43:30.633Z,2.27
2018-08-13T02:45:59.057Z,2.63
2018-08-13T02:48:27.537Z,2.03
2018-08-13T02:50:55.964Z,2.00
2018-08-13T02:53:24.409Z,2.20
2018-08-13T02:55:52.840Z,2.10
2018-08-13T02:58:21.333Z,3.00
2018-08-13T03:00:49.742Z,2.10
2018-08-13T03:03:18.256Z,1.90
2018-08-13T03:05:46.649Z,2.80
2018-08-13T03:08:15.113Z,2.60
2018-08-13T03:10:43.504Z,2.00
2018-08-13T03:13:12.005Z,2.33
2018-08-13T03:15:40.424Z,2.30
2018-08-13T03:18:08.907Z,2.40
2018-08-13T03:20:37.323Z,2.60
2018-08-13T03:23:06.104Z,2.63
2018-08-13T03:25:34.524Z,2.03
2018-08-13T03:28:02.933Z,2.13
2018-08-13T03:30:31.371Z,2.37
2018-08-13T03:32:59.821Z,2.80
2018-08-13T03:35:28.210Z,2.87
2018-08-13T03:37:56.623Z,2.00
2018-08-13T03:40:25.022Z,2.50
2018-08-13T03:42:53.444Z,2.80
2018-08-13T03:45:21.846Z,2.30
2018-08-13T03:47:50.292Z,1.93
2018-08-13T03:50:20.787Z,1.90
2018-08-13T03:52:49.224Z,2.10
2018-08-13T03:55:17.667Z,1.97
2018-08-13T03:57:46.115Z,1.90
2018-08-13T04:00:15.555Z,2.10
2018-08-13T04:02:44.146Z,2.40
2018-08-13T04:05:13.482Z,3.07
2018-08-13T04:07:41.951Z,2.60
2018-08-13T04:10:11.751Z,2.70
2018-08-13T04:12:42.253Z,2.30
2018-08-13T04:15:12.195Z,1.90
2018-08-13T04:17:40.643Z,2.20
2018-08-13T04:20:10.936Z,2.40
2018-08-13T04:22:39.417Z,2.50
2018-08-13T04:25:08.884Z,2.20
2018-08-13T04:27:37.643Z,2.57
2018-08-13T04:30:10.039Z,3.03
2018-08-13T04:32:38.455Z,3.10
2018-08-13T04:35:06.936Z,2.00
2018-08-13T04:37:35.347Z,2.80
2018-08-13T04:40:04.788Z,2.63
2018-08-13T04:42:33.240Z,2.60
2018-08-13T04:45:01.693Z,2.40
2018-08-13T04:47:30.119Z,2.20
2018-08-13T04:49:58.598Z,2.53
2018-08-13T04:52:27.044Z,3.30
2018-08-13T04:54:55.518Z,3.23
2018-08-13T04:57:24.035Z,2.67
2018-08-13T04:59:52.481Z,2.83
2018-08-13T05:02:20.925Z,2.70
2018-08-13T05:04:49.472Z,2.27
2018-08-13T05:07:18.332Z,2.20
2018-08-13T05:09:46.782Z,2.27
2018-08-13T05:12:15.225Z,2.03
2018-08-13T05:14:43.627Z,2.43
2018-08-13T05:17:12.076Z,2.53
2018-08-13T05:19:40.541Z,2.23
2018-08-13T05:22:09.044Z,2.77
2018-08-13T05:24:37.473Z,2.30
2018-08-13T05:27:05.960Z,2.10
2018-08-13T05:29:34.404Z,2.17
2018-08-13T05:32:02.931Z,2.30
2018-08-13T05:34:31.369Z,1.90
2018-08-13T05:36:59.859Z,2.20
2018-08-13T05:39:28.314Z,2.20
2018-08-13T05:41:59.619Z,2.53
2018-08-13T05:44:28.074Z,2.10
2018-08-13T05:46:56.527Z,2.30
2018-08-13T05:49:25.004Z,1.83
2018-08-13T05:51:53.427Z,1.83
2018-08-13T05:54:21.907Z,2.13
2018-08-13T05:56:50.349Z,2.00
2018-08-13T05:59:18.800Z,2.03
2018-08-13T06:01:47.228Z,1.93
2018-08-13T06:04:15.684Z,1.93
2018-08-13T06:06:44.107Z,1.93
2018-08-13T06:09:13.315Z,1.90
2018-08-13T06:11:41.819Z,2.20
2018-08-13T06:14:10.335Z,1.70
2018-08-13T06:16:38.805Z,2.17
2018-08-13T06:19:07.339Z,2.10
2018-08-13T06:21:35.781Z,1.70
2018-08-13T06:24:04.283Z,2.03
2018-08-13T06:26:32.738Z,1.90
2018-08-13T06:29:01.188Z,1.60
2018-08-13T06:31:29.628Z,2.10
2018-08-13T06:33:58.095Z,2.10
2018-08-13T06:36:26.544Z,2.13
2018-08-13T06:38:55.005Z,1.67
2018-08-13T06:41:23.421Z,1.60
2018-08-13T06:43:51.870Z,1.70
2018-08-13T06:46:20.338Z,1.87
2018-08-13T06:48:48.800Z,1.97
2018-08-13T06:51:17.256Z,1.60
2018-08-13T06:53:45.689Z,1.53
2018-08-13T06:56:14.173Z,1.70
2018-08-13T06:58:43.311Z,1.60
2018-08-13T07:01:13.963Z,1.50
2018-08-13T07:03:43.375Z,2.10
2018-08-13T07:06:13.875Z,1.77
2018-08-13T07:08:46.434Z,2.17
2018-08-13T07:11:15.000Z,1.70
2018-08-13T07:13:43.484Z,2.00
2018-08-13T07:16:11.947Z,1.90
2018-08-13T07:18:40.519Z,2.00
2018-08-13T07:21:09.054Z,1.83
2018-08-13T07:23:37.520Z,1.93
2018-08-13T07:26:05.999Z,1.73
2018-08-13T07:28:34.482Z,1.97
2018-08-13T07:31:02.936Z,2.23
2018-08-13T07:33:31.432Z,1.93
2018-08-13T07:35:59.910Z,2.43
2018-08-13T07:38:28.397Z,2.20
2018-08-13T07:40:56.859Z,2.47
2018-08-13T07:43:25.291Z,2.03
2018-08-13T07:45:53.800Z,2.03
2018-08-13T07:48:22.274Z,1.90
2018-08-13T07:50:50.723Z,1.87
2018-08-13T07:53:19.212Z,1.93
2018-08-13T07:55:47.665Z,1.63
2018-08-13T07:58:16.121Z,1.80
2018-08-13T08:00:44.574Z,2.17
2018-08-13T08:03:13.088Z,2.30
2018-08-13T08:05:41.532Z,1.67
2018-08-13T08:08:10.024Z,2.40
2018-08-13T08:10:38.496Z,2.30
2018-08-13T08:13:07.357Z,2.40
2018-08-13T08:15:35.797Z,2.37
2018-08-13T08:18:04.416Z,2.10
2018-08-13T08:20:32.881Z,1.60
2018-08-13T08:23:01.396Z,2.13
2018-08-13T08:25:29.871Z,2.10
2018-08-13T08:27:58.327Z,1.97
2018-08-13T08:30:26.749Z,1.97
2018-08-13T08:32:55.232Z,1.90
2018-08-13T08:35:23.704Z,2.30
2018-08-13T08:37:52.170Z,2.37
2018-08-13T08:40:21.463Z,1.83
2018-08-13T08:42:50.534Z,2.00
2018-08-13T08:45:22.302Z,1.57
2018-08-13T08:47:51.688Z,1.83
2018-08-13T08:50:20.188Z,2.30
2018-08-13T08:52:48.742Z,2.30
2018-08-13T08:55:18.087Z,2.40
2018-08-13T08:57:47.180Z,2.80
2018-08-13T09:00:18.007Z,2.37
2018-08-13T09:02:46.511Z,2.80
2018-08-13T09:05:15.396Z,2.30
2018-08-13T09:07:44.566Z,2.67
2018-08-13T09:10:13.190Z,2.77
2018-08-13T09:12:41.639Z,2.77
2018-08-13T09:15:13.166Z,3.17
2018-08-13T09:17:52.913Z,2.70
2018-08-13T09:20:32.623Z,3.53
2018-08-13T09:23:12.348Z,3.40
2018-08-13T09:25:52.072Z,3.13
2018-08-13T09:28:31.786Z,3.57
2018-08-13T09:31:11.808Z,3.67
2018-08-13T09:33:51.609Z,3.07
2018-08-13T09:36:20.052Z,3.23
2018-08-13T09:38:48.496Z,3.30
2018-08-13T09:41:17.022Z,4.00
2018-08-13T09:43:45.511Z,3.40
2018-08-13T09:46:13.991Z,3.57
2018-08-13T09:48:42.432Z,3.30
2018-08-13T09:51:10.888Z,3.60
2018-08-13T09:53:39.359Z,2.93
2018-08-13T09:56:07.814Z,3.20
2018-08-13T09:58:36.251Z,4.07
2018-08-13T10:01:07.360Z,3.07
2018-08-13T10:03:35.805Z,3.73
2018-08-13T10:06:04.323Z,3.80
2018-08-13T10:08:32.791Z,3.57
2018-08-13T10:11:01.313Z,3.93
2018-08-13T10:13:29.939Z,4.20
2018-08-13T10:15:58.391Z,4.30
2018-08-13T10:18:26.844Z,3.73
2018-08-13T10:20:55.294Z,4.80
2018-08-13T10:23:23.755Z,4.10
2018-08-13T10:25:52.265Z,4.70
2018-08-13T10:28:20.755Z,4.73
2018-08-13T10:30:49.212Z,4.50
2018-08-13T10:33:17.671Z,4.90
2018-08-13T10:35:46.117Z,4.17
2018-08-13T10:38:14.579Z,4.13
2018-08-13T10:40:43.008Z,4.93
2018-08-13T10:43:11.482Z,4.47
2018-08-13T10:45:39.936Z,4.30
2018-08-13T10:48:08.479Z,4.23
2018-08-13T10:50:36.920Z,3.50
2018-08-13T10:53:05.410Z,4.03
2018-08-13T10:55:33.850Z,5.23
2018-08-13T10:58:02.397Z,3.90
2018-08-13T11:00:30.868Z,4.20
2018-08-13T11:02:59.488Z,4.50
2018-08-13T11:05:27.936Z,4.37
2018-08-13T11:07:56.388Z,4.43
2018-08-13T11:10:24.904Z,3.70
2018-08-13T11:12:53.348Z,3.60
2018-08-13T11:15:21.796Z,4.40
2018-08-13T11:17:50.239Z,4.20
2018-08-13T11:20:18.723Z,3.93
2018-08-13T11:22:47.583Z,4.90
2018-08-13T11:25:16.418Z,4.40
2018-08-13T11:27:44.979Z,4.60
2018-08-13T11:30:15.659Z,4.70
2018-08-13T11:32:44.161Z,4.10
2018-08-13T11:35:13.188Z,4.83
2018-08-13T11:37:41.705Z,4.27
2018-08-13T11:40:13.785Z,4.70
2018-08-13T11:42:42.321Z,4.40
2018-08-13T11:45:11.061Z,4.20
2018-08-13T11:47:40.064Z,4.97
2018-08-13T11:50:11.916Z,4.60
2018-08-13T11:52:40.393Z,4.27
2018-08-13T11:55:08.920Z,4.47
2018-08-13T11:57:37.458Z,4.10
2018-08-13T12:00:07.944Z,4.53
2018-08-13T12:02:36.709Z,3.90
2018-08-13T12:05:06.866Z,4.10
2018-08-13T12:07:35.378Z,3.93
2018-08-13T12:10:03.919Z,3.40
2018-08-13T12:12:32.390Z,5.10
2018-08-13T12:15:00.884Z,4.00
2018-08-13T12:17:29.566Z,3.50
2018-08-13T12:19:57.995Z,4.40
2018-08-13T12:22:26.559Z,4.37
2018-08-13T12:24:54.990Z,4.97
2018-08-13T12:27:23.511Z,4.40
2018-08-13T12:29:52.175Z,4.37
2018-08-13T12:32:20.640Z,3.90
2018-08-13T12:34:49.085Z,4.67
2018-08-13T12:37:17.535Z,4.20
2018-08-13T12:39:45.976Z,3.90
2018-08-13T12:42:14.443Z,4.20
2018-08-13T12:44:42.939Z,4.50
2018-08-13T12:47:11.397Z,3.97
2018-08-13T12:49:39.836Z,4.33
2018-08-13T12:52:08.296Z,4.53
2018-08-13T12:54:36.823Z,3.53
2018-08-13T12:57:05.635Z,3.77
2018-08-13T12:59:34.060Z,3.70
2018-08-13T13:02:02.495Z,2.70
2018-08-13T13:04:30.911Z,3.27
2018-08-13T13:06:59.351Z,3.50
2018-08-13T13:09:27.776Z,4.07
2018-08-13T13:11:56.305Z,3.57
2018-08-13T13:14:24.751Z,3.83
2018-08-13T13:16:53.237Z,3.10
2018-08-13T13:19:21.719Z,3.30
2018-08-13T13:21:50.159Z,3.23
2018-08-13T13:24:18.619Z,2.80
2018-08-13T13:26:47.099Z,2.80
2018-08-13T13:29:15.575Z,2.97
2018-08-13T13:31:44.048Z,3.10
2018-08-13T13:34:12.520Z,2.50
2018-08-13T13:36:40.960Z,2.77
2018-08-13T13:39:09.868Z,2.30
2018-08-13T13:41:38.317Z,2.87
2018-08-13T13:44:06.813Z,3.00
2018-08-13T13:46:35.292Z,2.53
2018-08-13T13:49:03.782Z,2.50
2018-08-13T13:51:32.259Z,2.50
2018-08-13T13:54:00.666Z,2.30
2018-08-13T13:56:29.081Z,2.97
2018-08-13T13:58:57.528Z,3.00
2018-08-13T14:01:25.957Z,3.00
2018-08-13T14:03:54.770Z,2.60
2018-08-13T14:06:23.328Z,3.20
2018-08-13T14:08:51.845Z,2.80
2018-08-13T14:11:20.316Z,2.63
2018-08-13T14:13:48.777Z,3.10
2018-08-13T14:16:17.312Z,2.90
2018-08-13T14:18:45.780Z,3.17
2018-08-13T14:21:14.241Z,2.73
2018-08-13T14:23:42.722Z,3.03
2018-08-13T14:26:11.192Z,4.13
2018-08-13T14:28:39.651Z,3.07
2018-08-13T14:31:08.145Z,3.70
2018-08-13T14:33:36.628Z,3.03
2018-08-13T14:36:05.170Z,3.13
2018-08-13T14:38:33.621Z,2.80
2018-08-13T14:41:02.079Z,3.20
2018-08-13T14:43:30.552Z,2.30
2018-08-13T14:45:58.996Z,3.33
2018-08-13T14:48:27.460Z,2.90
2018-08-13T14:50:55.976Z,2.47
2018-08-13T14:53:24.413Z,3.30
2018-08-13T14:55:52.858Z,3.30
2018-08-13T14:58:21.283Z,2.90
2018-08-13T15:00:49.759Z,2.50
2018-08-13T15:03:18.243Z,3.10
2018-08-13T15:05:46.736Z,2.90
2018-08-13T15:08:15.204Z,2.83
2018-08-13T15:10:43.661Z,2.30
2018-08-13T15:13:12.178Z,2.33
2018-08-13T15:15:40.604Z,2.27
2018-08-13T15:18:09.085Z,2.10
2018-08-13T15:20:37.569Z,2.10
2018-08-13T15:23:06.068Z,2.50
2018-08-13T15:25:34.840Z,2.17
2018-08-13T15:28:03.427Z,2.70
2018-08-13T15:30:31.812Z,2.33
2018-08-13T15:33:00.229Z,2.87
2018-08-13T15:35:28.708Z,2.70
2018-08-13T15:37:57.142Z,2.50
2018-08-13T15:40:25.618Z,2.57
2018-08-13T15:42:54.083Z,2.67
2018-08-13T15:45:23.588Z,2.10
2018-08-13T15:47:52.178Z,2.23
2018-08-13T15:50:21.783Z,2.40
2018-08-13T15:52:50.692Z,2.80
2018-08-13T15:55:19.302Z,2.27
2018-08-13T15:57:47.892Z,2.33
2018-08-13T16:00:18.554Z,2.03
2018-08-13T16:02:47.433Z,2.20
2018-08-13T16:05:15.906Z,2.20
2018-08-13T16:07:44.551Z,2.27
2018-08-13T16:10:14.455Z,2.33
2018-08-13T16:12:43.359Z,2.20
2018-08-13T16:15:11.867Z,2.10
2018-08-13T16:17:40.917Z,1.80
2018-08-13T16:20:13.596Z,2.60
2018-08-13T16:22:43.039Z,1.83
2018-08-13T16:25:11.618Z,1.93
2018-08-13T16:27:40.331Z,1.93
2018-08-13T16:30:20.347Z,1.80
2018-08-13T16:32:49.361Z,2.20
2018-08-13T16:35:18.834Z,1.97
2018-08-13T16:37:47.884Z,2.30
2018-08-13T16:40:17.233Z,2.33
2018-08-13T16:42:46.100Z,2.47
2018-08-13T16:45:15.764Z,1.80
2018-08-13T16:47:44.321Z,2.20
2018-08-13T16:50:21.630Z,2.07
2018-08-13T16:52:50.178Z,2.03
2018-08-13T16:55:18.674Z,1.90
2018-08-13T16:57:47.220Z,2.00
2018-08-13T17:00:19.143Z,2.17
2018-08-13T17:02:47.564Z,2.10
2018-08-13T17:05:16.046Z,2.13
2018-08-13T17:07:44.479Z,1.87
2018-08-13T17:10:18.539Z,2.10
2018-08-13T17:12:48.800Z,2.10
2018-08-13T17:15:17.564Z,2.03
2018-08-13T17:17:48.042Z,1.63
2018-08-13T17:20:18.564Z,2.00
2018-08-13T17:22:47.100Z,2.03
2018-08-13T17:25:16.059Z,1.83
2018-08-13T17:27:44.764Z,1.63
2018-08-13T17:30:18.630Z,1.87
2018-08-13T17:32:48.239Z,1.37
2018-08-13T17:35:17.945Z,1.90
2018-08-13T17:37:46.510Z,1.80
2018-08-13T17:40:18.119Z,2.00
2018-08-13T17:42:47.150Z,1.83
2018-08-13T17:45:15.659Z,2.00
2018-08-13T17:47:44.139Z,2.00
2018-08-13T17:50:15.332Z,1.67
2018-08-13T17:52:44.104Z,2.20
2018-08-13T17:55:13.393Z,2.10
2018-08-13T17:57:42.261Z,2.10
2018-08-13T18:00:15.391Z,2.20
2018-08-13T18:02:43.945Z,2.13
2018-08-13T18:05:15.807Z,2.00
2018-08-13T18:07:44.412Z,1.80
2018-08-13T18:10:14.764Z,2.00
2018-08-13T18:12:43.259Z,1.90
2018-08-13T18:15:14.316Z,2.13
2018-08-13T18:17:43.412Z,2.43
2018-08-13T18:20:12.265Z,1.80
2018-08-13T18:22:40.712Z,2.17
2018-08-13T18:25:10.816Z,2.00
2018-08-13T18:27:40.157Z,1.40
2018-08-13T18:30:11.441Z,1.93
2018-08-13T18:32:39.995Z,1.90
2018-08-13T18:35:08.500Z,0.90
2018-08-13T18:37:36.994Z,1.03
2018-08-13T18:40:07.588Z,1.50
2018-08-13T18:42:36.088Z,1.60
2018-08-13T18:45:05.556Z,1.30
2018-08-13T18:47:34.139Z,1.40
2018-08-13T18:50:02.640Z,1.70
2018-08-13T18:52:31.113Z,1.77
2018-08-13T18:54:59.539Z,1.53
2018-08-13T18:57:27.992Z,1.67
2018-08-13T18:59:56.437Z,1.70
2018-08-13T19:02:24.895Z,1.70
2018-08-13T19:04:53.347Z,1.27
2018-08-13T19:07:21.807Z,1.60
2018-08-13T19:09:50.291Z,1.80
2018-08-13T19:12:18.726Z,1.50
2018-08-13T19:14:47.161Z,2.17
2018-08-13T19:17:15.659Z,1.90
2018-08-13T19:19:44.083Z,1.60
2018-08-13T19:22:12.543Z,2.07
2018-08-13T19:24:40.989Z,2.20
2018-08-13T19:27:09.485Z,1.57
2018-08-13T19:29:37.978Z,2.40
2018-08-13T19:32:06.464Z,2.00
2018-08-13T19:34:34.915Z,2.37
2018-08-13T19:37:03.388Z,2.30
2018-08-13T19:39:31.876Z,2.63
2018-08-13T19:42:00.388Z,2.67
2018-08-13T19:44:28.896Z,2.50
2018-08-13T19:46:57.360Z,2.20
2018-08-13T19:49:25.825Z,2.30
2018-08-13T19:51:54.294Z,2.43
2018-08-13T19:54:22.739Z,2.67
2018-08-13T19:56:51.209Z,2.73
2018-08-13T19:59:19.677Z,2.30
2018-08-13T20:01:48.158Z,2.80
2018-08-13T20:04:16.608Z,2.47
2018-08-13T20:06:45.091Z,2.90
2018-08-13T20:09:13.572Z,2.23
2018-08-13T20:11:42.026Z,2.30
2018-08-13T20:14:10.493Z,2.33
2018-08-13T20:16:38.957Z,2.30
2018-08-13T20:19:07.419Z,2.40
2018-08-13T20:21:35.888Z,2.77
2018-08-13T20:24:04.388Z,2.10
2018-08-13T20:26:33.655Z,2.67
2018-08-13T20:29:02.149Z,3.30
2018-08-13T20:31:30.575Z,3.00
2018-08-13T20:33:59.058Z,2.70
2018-08-13T20:36:27.508Z,2.50
2018-08-13T20:38:56.073Z,2.37
2018-08-13T20:41:24.438Z,3.03
2018-08-13T20:43:52.895Z,2.33
2018-08-13T20:46:21.319Z,2.77
2018-08-13T20:48:49.787Z,2.50
2018-08-13T20:51:18.327Z,2.70
2018-08-13T20:53:46.756Z,2.63
2018-08-13T20:56:15.239Z,2.70
2018-08-13T20:58:43.677Z,2.80
2018-08-13T21:01:12.131Z,2.90
2018-08-13T21:03:40.623Z,3.17
2018-08-13T21:06:09.092Z,3.03
2018-08-13T21:08:37.592Z,2.80
2018-08-13T21:11:06.074Z,2.67
2018-08-13T21:13:34.532Z,2.90
2018-08-13T21:16:03.060Z,3.40
2018-08-13T21:18:31.483Z,2.33
2018-08-13T21:20:59.924Z,3.30
2018-08-13T21:23:28.578Z,2.30
2018-08-13T21:25:57.031Z,2.90
2018-08-13T21:28:25.485Z,2.83
2018-08-13T21:30:53.932Z,2.50
2018-08-13T21:33:22.370Z,2.90
2018-08-13T21:35:50.815Z,2.90
2018-08-13T21:38:19.271Z,2.83
2018-08-13T21:40:47.762Z,2.80
2018-08-13T21:43:16.205Z,3.20
2018-08-13T21:45:44.667Z,3.47
2018-08-13T21:48:13.140Z,2.77
2018-08-13T21:50:41.584Z,2.67
2018-08-13T21:53:10.031Z,2.97
2018-08-13T21:55:38.500Z,3.23
2018-08-13T21:58:06.931Z,3.13
2018-08-13T22:00:40.836Z,2.80
2018-08-13T22:03:10.357Z,3.10
2018-08-13T22:05:38.824Z,3.20
2018-08-13T22:08:07.336Z,2.90
2018-08-13T22:10:35.783Z,2.70
2018-08-13T22:13:04.308Z,2.60
2018-08-13T22:15:33.368Z,3.00
2018-08-13T22:18:03.087Z,2.60
2018-08-13T22:20:32.805Z,2.70
2018-08-13T22:23:02.064Z,2.80
2018-08-13T22:25:32.188Z,2.43
2018-08-13T22:28:01.211Z,3.00
2018-08-13T22:30:31.293Z,3.20
2018-08-13T22:32:59.771Z,2.60
2018-08-13T22:35:28.244Z,2.93
2018-08-13T22:37:56.744Z,3.07
2018-08-13T22:40:25.179Z,2.83
2018-08-13T22:42:53.688Z,2.90
2018-08-13T22:45:23.139Z,2.90
2018-08-13T22:47:51.703Z,2.60
2018-08-13T22:50:20.223Z,3.33
2018-08-13T22:52:48.726Z,2.57
2018-08-13T22:55:18.115Z,2.93
2018-08-13T22:57:46.676Z,2.70
2018-08-13T23:00:17.431Z,2.23
2018-08-13T23:02:46.715Z,2.70
2018-08-13T23:05:23.217Z,2.60
2018-08-13T23:07:51.741Z,2.50
2018-08-13T23:10:21.287Z,2.50
2018-08-13T23:12:50.968Z,2.33
2018-08-13T23:15:19.924Z,2.93
2018-08-13T23:17:48.523Z,2.70
2018-08-13T23:20:21.283Z,2.70
2018-08-13T23:22:55.353Z,2.23
2018-08-13T23:25:23.876Z,2.20
2018-08-13T23:27:53.551Z,2.67
2018-08-13T23:30:22.046Z,2.87
2018-08-13T23:32:51.747Z,2.70
2018-08-13T23:35:21.047Z,3.10
2018-08-13T23:37:49.934Z,2.50
2018-08-13T23:40:18.428Z,3.47
2018-08-13T23:42:46.920Z,3.10
2018-08-13T23:45:18.404Z,2.33
2018-08-13T23:47:46.915Z,2.97
2018-08-13T23:50:17.268Z,3.03
2018-08-13T23:52:45.863Z,3.10
2018-08-13T23:55:33.688Z,2.87
2018-08-13T23:58:02.678Z,3.40
